Hülben Airfield

DE-0309 · 巴登-符腾堡, 德国

罗盘
风向 的 风向 的 风向 到 风向 060° Hülben Airfield 11/29
风: 8 kt, 3 beaufort

6 kt

5 kt
改变
0 ft 1.000 2.000 3.000 4.000 5.000
Cloud Cloud Cloud Cloud Cloud Cloud
BKN 4.400
METAR EDDS 221120Z AUTO 06008KT 020V100 9999 BKN044 08/M02 Q1019 NOSIG

METAR Hülben Airfield - DE-0309

Hülben Airfield是,德国中的小机场。 该机场位于纬度48,52937和经度9,39856。 该机场有2条跑道: 11/29 和 8/26. 这个机场没有ICAO代码,我们使用DE-0309作为参考。 机场在Langen FIR中。

该航空气象观测是针对Stuttgart Airport在2024年4月22日 13:20, 当地时间进行的。

机场观察

风向为060°,速度为8 kt。 风向在020°和100°之间变化。

可见度为10 km 或者更多。

有碎云在4.400 ft的高度。 破损或更高的上限为4.400 ft。

温度为8 °C,阵风为4 °C。 露点为-2 °C,相对湿度为50%。 海平面上的气压为1019 hPa (QNH)。

白天

今天,太阳从06:17升起,在20:24降落。 这适用于Hülben Airfield,世界夏令时可能有所不同。 当地时间与世界标准时间之间的时差为+2 小时。 夏令时目前正在进行中。

公司介绍

我们没有关于这个机场的公司信息。

体会

到Vliegles.nl去找飞行课程,跳伞和其他飞行体验。 浏览页面,了解Hülben Airfield附近所有可用的活动。 你也可以使用搜索功能来寻找你所在地附近的特定飞行课程、跳伞或其他飞行体验。

跑道

Id 标题 侧风 逆风 侧风 %
11/29 097°-277° 5 kt 6 kt 60 %
8/26 087°-267° 4 kt 7 kt 45 %

逆风成分最大的方向会被突出显示,并用于横风计算。 这并不一定意味着这个方向在使用。

乌云

4.400 ft BKN 碎云

温度 & 天气

温度 8 °C
露点 -2 °C
相对湿度 50%
风寒 4 °C
Kp-index 1 (0-9)

白天

日出
06:17
中午
13:21
日落
20:25 (6:32)

小工具

你想在你的网站上有一个关于Hülben Airfield的当前航空天气(METAR)的小部件吗?

显示HTML代码
报告变更